createdAt,value
2023-02-15T00:01:05.414Z,101599.81
2023-02-15T00:04:19.001Z,101596.63
2023-02-15T00:07:00.925Z,101600.44
2023-02-15T00:09:27.598Z,101599.63
2023-02-15T00:11:54.125Z,101600.34
2023-02-15T00:14:23.046Z,101599.31
2023-02-15T00:16:52.145Z,101598.38
2023-02-15T00:19:20.631Z,101605.38
2023-02-15T00:21:48.654Z,101602.38
2023-02-15T00:24:17.279Z,101597.28
2023-02-15T00:26:44.728Z,101600.81
2023-02-15T00:29:12.748Z,101600.81
2023-02-15T00:31:39.392Z,101604.91
2023-02-15T00:34:08.762Z,101607.41
2023-02-15T00:36:35.294Z,101610.75
2023-02-15T00:39:01.813Z,101602.56
2023-02-15T00:41:28.500Z,101600.19
2023-02-15T00:43:55.057Z,101599.16
2023-02-15T00:46:21.766Z,101597.84
2023-02-15T00:48:48.370Z,101601.47
2023-02-15T00:51:14.938Z,101601.75
2023-02-15T00:53:41.504Z,101596.34
2023-02-15T00:56:08.134Z,101584.34
2023-02-15T00:58:34.792Z,101590.09
2023-02-15T01:01:16.247Z,101591.16
2023-02-15T01:03:42.969Z,101589.63
2023-02-15T01:06:11.242Z,101586.75
2023-02-15T01:08:38.259Z,101591.91
2023-02-15T01:11:11.287Z,101592.38
2023-02-15T01:13:38.819Z,101587.53
2023-02-15T01:16:06.080Z,101583.00
2023-02-15T01:18:33.906Z,101593.72
2023-02-15T01:21:11.693Z,101593.09
2023-02-15T01:23:38.339Z,101592.87
2023-02-15T01:26:04.954Z,101583.78
2023-02-15T01:28:32.368Z,101586.94
2023-02-15T01:31:00.274Z,101582.84
2023-02-15T01:33:26.986Z,101585.09
2023-02-15T01:39:54.756Z,101585.69
2023-02-15T01:42:25.336Z,101578.44
2023-02-15T01:44:57.331Z,101566.13
2023-02-15T01:50:26.868Z,101560.06
2023-02-15T01:53:28.889Z,101561.69
2023-02-15T01:56:00.689Z,101560.31
2023-02-15T01:58:30.584Z,101563.44
2023-02-15T02:01:01.194Z,101560.94
2023-02-15T02:03:44.860Z,101562.75
2023-02-15T02:08:55.178Z,101563.38
2023-02-15T02:11:22.185Z,101561.00
2023-02-15T02:13:51.551Z,101563.28
2023-02-15T02:21:03.661Z,101556.69
2023-02-15T02:24:04.350Z,101561.16
2023-02-15T02:26:52.587Z,101560.09
2023-02-15T02:29:51.719Z,101563.13
2023-02-15T02:32:55.416Z,101557.62
2023-02-15T02:35:49.707Z,101560.78
2023-02-15T02:38:34.558Z,101560.00
2023-02-15T02:41:17.898Z,101554.97
2023-02-15T02:44:04.032Z,101556.53
2023-02-15T02:50:41.755Z,101552.16
2023-02-15T02:53:10.138Z,101560.22
2023-02-15T02:55:43.628Z,101569.97
2023-02-15T02:58:21.361Z,101564.41
2023-02-15T03:00:54.314Z,101570.31
2023-02-15T03:03:33.653Z,101567.47
2023-02-15T03:08:48.511Z,101567.28
2023-02-15T03:11:15.562Z,101569.53
2023-02-15T03:13:43.940Z,101570.28
2023-02-15T03:16:28.430Z,101568.41
2023-02-15T03:19:13.512Z,101569.31
2023-02-15T03:22:36.528Z,101568.59
2023-02-15T03:25:31.176Z,101570.94
2023-02-15T03:28:04.533Z,101568.78
2023-02-15T03:30:33.521Z,101568.44
2023-02-15T03:33:02.168Z,101565.25
2023-02-15T03:35:40.146Z,101566.59
2023-02-15T03:38:10.028Z,101569.47
2023-02-15T03:41:01.883Z,101572.31
2023-02-15T03:43:51.389Z,101572.78
2023-02-15T03:46:38.418Z,101575.44
2023-02-15T03:49:10.710Z,101562.84
2023-02-15T03:51:41.120Z,101567.19
2023-02-15T04:01:00.262Z,101577.22
2023-02-15T04:03:46.790Z,101567.09
2023-02-15T04:06:13.392Z,101569.97
2023-02-15T04:08:58.626Z,101564.53
2023-02-15T04:11:40.197Z,101575.09
2023-02-15T04:14:26.674Z,101572.19
2023-02-15T04:16:53.469Z,101574.78
2023-02-15T04:19:38.830Z,101571.28
2023-02-15T04:22:23.726Z,101567.75
2023-02-15T04:25:10.613Z,101578.59
2023-02-15T04:27:37.862Z,101569.22
2023-02-15T04:30:05.425Z,101564.56
2023-02-15T04:32:32.231Z,101564.94
2023-02-15T04:34:58.909Z,101566.13
2023-02-15T04:37:25.465Z,101565.47
2023-02-15T04:42:33.474Z,101573.72
2023-02-15T04:45:00.063Z,101572.94
2023-02-15T04:47:26.765Z,101576.34
2023-02-15T04:49:53.295Z,101573.66
2023-02-15T04:52:20.094Z,101574.53
2023-02-15T04:55:21.247Z,101565.50
2023-02-15T04:58:35.012Z,101574.88
2023-02-15T05:01:15.156Z,101582.09
2023-02-15T05:03:45.371Z,101575.84
2023-02-15T05:06:12.321Z,101572.75
2023-02-15T05:08:39.203Z,101575.94
2023-02-15T05:11:05.775Z,101578.69
2023-02-15T05:13:38.338Z,101582.47
2023-02-15T05:16:05.077Z,101578.12
2023-02-15T05:18:38.174Z,101581.88
2023-02-15T05:21:05.009Z,101580.34
2023-02-15T05:23:31.594Z,101583.81
2023-02-15T05:26:16.721Z,101587.69
2023-02-15T05:28:43.311Z,101594.75
2023-02-15T05:31:16.161Z,101595.50
2023-02-15T05:33:43.409Z,101589.94
2023-02-15T05:36:34.806Z,101604.50
2023-02-15T05:39:01.389Z,101599.00
2023-02-15T05:41:28.007Z,101602.19
2023-02-15T05:43:57.726Z,101605.44
2023-02-15T05:46:24.389Z,101603.09
2023-02-15T05:48:51.043Z,101607.97
2023-02-15T05:51:18.022Z,101608.34
2023-02-15T05:53:44.834Z,101613.22
2023-02-15T05:56:13.065Z,101601.75
2023-02-15T05:58:41.265Z,101615.66
2023-02-15T06:01:18.503Z,101608.81
2023-02-15T06:03:46.159Z,101611.12
2023-02-15T06:06:12.938Z,101616.25
2023-02-15T06:08:39.780Z,101615.12
2023-02-15T06:11:06.990Z,101616.13
2023-02-15T06:13:37.896Z,101611.34
2023-02-15T06:16:05.693Z,101615.88
2023-02-15T06:18:32.408Z,101609.63
2023-02-15T06:20:58.966Z,101613.78
2023-02-15T06:23:25.693Z,101614.66
2023-02-15T06:25:52.288Z,101613.97
2023-02-15T06:28:18.971Z,101613.63
2023-02-15T06:30:45.587Z,101617.78
2023-02-15T06:33:12.198Z,101611.62
2023-02-15T06:35:38.800Z,101620.37
2023-02-15T06:38:05.364Z,101619.09
2023-02-15T06:40:31.917Z,101622.06
2023-02-15T06:42:59.966Z,101611.56
2023-02-15T06:45:26.526Z,101623.78
2023-02-15T06:47:53.089Z,101619.50
2023-02-15T06:50:19.773Z,101624.62
2023-02-15T06:52:46.362Z,101626.78
2023-02-15T06:55:15.328Z,101628.19
2023-02-15T06:57:41.868Z,101634.38
2023-02-15T07:00:09.233Z,101643.81
2023-02-15T07:02:35.833Z,101639.94
2023-02-15T07:05:02.562Z,101633.16
2023-02-15T07:07:29.228Z,101631.66
2023-02-15T07:09:55.778Z,101626.84
2023-02-15T07:12:40.993Z,101631.19
2023-02-15T07:15:10.085Z,101632.59
2023-02-15T07:17:37.397Z,101630.50
2023-02-15T07:20:07.067Z,101630.75
2023-02-15T07:22:35.170Z,101634.09
2023-02-15T07:25:02.005Z,101636.13
2023-02-15T07:27:28.707Z,101633.63
2023-02-15T07:30:26.511Z,101629.78
2023-02-15T07:36:07.462Z,101628.81
2023-02-15T07:38:36.912Z,101629.91
2023-02-15T07:41:05.984Z,101625.06
2023-02-15T07:43:35.261Z,101622.03
2023-02-15T07:46:08.572Z,101623.19
2023-02-15T07:48:36.040Z,101624.34
2023-02-15T07:51:04.948Z,101617.97
2023-02-15T07:53:32.618Z,101616.34
2023-02-15T07:56:04.460Z,101619.50
2023-02-15T07:58:49.587Z,101625.31
2023-02-15T08:01:16.367Z,101627.22
2023-02-15T08:03:43.002Z,101630.06
2023-02-15T08:06:10.714Z,101626.94
2023-02-15T08:08:38.674Z,101615.91
2023-02-15T08:11:27.018Z,101623.53
2023-02-15T08:13:54.835Z,101615.84
2023-02-15T08:16:21.357Z,101614.97
2023-02-15T08:18:48.592Z,101612.31
2023-02-15T08:21:15.186Z,101611.16
2023-02-15T08:23:41.749Z,101608.34
2023-02-15T08:26:08.340Z,101615.97
2023-02-15T08:28:34.978Z,101611.06
2023-02-15T08:31:09.418Z,101615.25
2023-02-15T08:33:37.820Z,101609.37
2023-02-15T08:36:10.247Z,101613.78
2023-02-15T08:38:37.521Z,101606.47
2023-02-15T08:41:20.063Z,101607.72
2023-02-15T08:43:50.209Z,101603.09
2023-02-15T08:46:17.741Z,101604.78
2023-02-15T08:48:45.261Z,101604.78
2023-02-15T08:51:15.814Z,101602.87
2023-02-15T08:53:45.376Z,101611.62
2023-02-15T08:56:15.526Z,101608.00
2023-02-15T08:58:43.426Z,101600.66
2023-02-15T09:01:12.897Z,101609.34
2023-02-15T09:03:40.126Z,101597.00
2023-02-15T09:06:07.298Z,101594.19
2023-02-15T09:08:33.913Z,101593.47
2023-02-15T09:11:09.788Z,101594.28
2023-02-15T09:13:37.176Z,101607.59
2023-02-15T09:16:06.561Z,101608.53
2023-02-15T09:18:38.439Z,101604.09
2023-02-15T09:21:10.634Z,101605.81
2023-02-15T09:29:11.774Z,101596.19
2023-02-15T09:31:45.287Z,101593.63
2023-02-15T09:34:14.556Z,101589.94
2023-02-15T09:36:42.131Z,101594.00
2023-02-15T09:39:12.632Z,101601.00
2023-02-15T09:42:00.665Z,101602.63
2023-02-15T09:45:00.952Z,101592.44
2023-02-15T09:48:02.546Z,101585.28
2023-02-15T09:50:36.769Z,101591.31
2023-02-15T09:53:15.380Z,101589.34
2023-02-15T09:56:17.215Z,101585.44
2023-02-15T09:58:53.695Z,101582.94
2023-02-15T10:01:59.305Z,101578.12
2023-02-15T10:04:32.086Z,101583.13
2023-02-15T10:07:17.257Z,101578.12
2023-02-15T10:09:52.796Z,101571.59
2023-02-15T10:12:43.689Z,101567.84
2023-02-15T10:15:28.485Z,101569.72
2023-02-15T10:18:13.536Z,101566.41
2023-02-15T10:20:53.422Z,101574.19
2023-02-15T10:23:42.152Z,101560.78
2023-02-15T10:26:19.310Z,101566.47
2023-02-15T10:29:07.859Z,101557.84
2023-02-15T10:32:14.233Z,101557.62
2023-02-15T10:34:55.818Z,101551.84
2023-02-15T10:37:33.240Z,101562.78
2023-02-15T10:40:50.155Z,101554.97
2023-02-15T10:43:42.616Z,101553.50
2023-02-15T10:46:32.352Z,101547.00
2023-02-15T10:49:21.735Z,101551.25
2023-02-15T10:51:54.410Z,101549.09
2023-02-15T10:54:45.317Z,101552.88
2023-02-15T10:57:25.617Z,101543.28
2023-02-15T10:59:57.905Z,101549.13
2023-02-15T11:02:35.508Z,101540.94
2023-02-15T11:05:46.007Z,101532.97
2023-02-15T11:08:13.077Z,101527.50
2023-02-15T11:10:48.316Z,101527.75
2023-02-15T11:13:18.445Z,101528.56
2023-02-15T11:16:03.278Z,101521.69
2023-02-15T11:18:40.634Z,101518.75
2023-02-15T11:21:15.571Z,101523.59
2023-02-15T11:23:45.833Z,101517.31
2023-02-15T11:26:38.813Z,101512.56
2023-02-15T11:29:29.092Z,101504.34
2023-02-15T11:32:00.730Z,101502.25
2023-02-15T11:34:41.169Z,101501.41
2023-02-15T11:37:14.844Z,101502.72
2023-02-15T11:39:41.930Z,101501.41
2023-02-15T11:42:19.727Z,101487.66
2023-02-15T11:45:01.528Z,101492.62
2023-02-15T11:47:28.753Z,101476.59
2023-02-15T11:49:55.682Z,101477.44
2023-02-15T11:52:22.357Z,101473.13
2023-02-15T11:54:51.428Z,101475.97
2023-02-15T11:57:29.967Z,101469.91
2023-02-15T12:00:12.457Z,101470.47
2023-02-15T12:02:43.446Z,101459.00
2023-02-15T12:05:54.838Z,101463.31
2023-02-15T12:08:43.191Z,101469.38
2023-02-15T12:11:13.403Z,101462.84
2023-02-15T12:14:00.843Z,101462.50
2023-02-15T12:16:29.881Z,101463.31
2023-02-15T12:18:59.601Z,101459.94
2023-02-15T12:21:40.695Z,101455.31
2023-02-15T12:24:24.243Z,101449.50
2023-02-15T12:27:15.124Z,101448.38
2023-02-15T12:29:45.405Z,101443.66
2023-02-15T12:32:19.644Z,101438.28
2023-02-15T12:34:48.182Z,101440.41
2023-02-15T12:37:20.090Z,101441.09
2023-02-15T12:40:01.285Z,101436.69
2023-02-15T12:42:41.578Z,101435.38
2023-02-15T12:45:42.197Z,101428.75
2023-02-15T12:48:21.020Z,101427.84
2023-02-15T12:51:06.195Z,101423.53
2023-02-15T12:53:35.163Z,101416.81
2023-02-15T12:56:04.513Z,101419.00
2023-02-15T12:58:33.502Z,101416.13
2023-02-15T13:01:20.383Z,101414.38
2023-02-15T13:04:07.550Z,101410.31
2023-02-15T13:06:36.541Z,101400.31
2023-02-15T13:09:26.112Z,101400.47
2023-02-15T13:11:52.938Z,101399.50
2023-02-15T13:14:23.494Z,101403.63
2023-02-15T13:16:54.116Z,101398.84
2023-02-15T13:19:30.473Z,101389.47
2023-02-15T13:21:58.974Z,101390.84
2023-02-15T13:24:30.215Z,101387.34
2023-02-15T13:27:14.072Z,101380.25
2023-02-15T13:29:46.555Z,101386.84
2023-02-15T13:32:37.309Z,101380.72
2023-02-15T13:35:08.155Z,101380.94
2023-02-15T13:37:51.815Z,101385.03
2023-02-15T13:40:47.682Z,101375.56
2023-02-15T13:43:22.913Z,101376.50
2023-02-15T13:46:19.821Z,101377.22
2023-02-15T13:49:24.049Z,101375.84
2023-02-15T13:52:25.530Z,101371.31
2023-02-15T13:55:10.168Z,101372.25
2023-02-15T13:57:57.274Z,101367.81
2023-02-15T14:00:29.101Z,101370.66
2023-02-15T14:03:04.690Z,101364.81
2023-02-15T14:05:31.853Z,101370.34
2023-02-15T14:08:08.696Z,101366.56
2023-02-15T14:11:25.608Z,101370.53
2023-02-15T14:14:20.706Z,101362.13
2023-02-15T14:17:14.923Z,101369.59
2023-02-15T14:19:51.234Z,101366.13
2023-02-15T14:22:40.092Z,101364.56
2023-02-15T14:25:15.590Z,101358.59
2023-02-15T14:28:09.888Z,101367.94
2023-02-15T14:30:43.840Z,101370.41
2023-02-15T14:33:38.004Z,101364.75
2023-02-15T14:36:08.609Z,101370.41
2023-02-15T14:39:06.500Z,101367.72
2023-02-15T14:45:12.307Z,101371.50
2023-02-15T14:47:43.524Z,101365.03
2023-02-15T14:50:32.028Z,101368.41
2023-02-15T14:53:28.655Z,101361.75
2023-02-15T14:59:12.660Z,101361.56
2023-02-15T15:01:40.316Z,101352.47
2023-02-15T15:04:10.544Z,101346.53
2023-02-15T15:06:40.612Z,101349.56
2023-02-15T15:09:24.111Z,101340.56
2023-02-15T15:15:05.109Z,101344.38
2023-02-15T15:17:34.981Z,101342.22
2023-02-15T15:20:05.439Z,101337.78
2023-02-15T15:22:33.809Z,101347.66
2023-02-15T15:25:37.965Z,101331.84
2023-02-15T15:28:06.142Z,101338.09
2023-02-15T15:30:32.719Z,101341.66
2023-02-15T15:33:07.623Z,101334.53
2023-02-15T15:35:53.605Z,101333.22
2023-02-15T15:38:44.314Z,101336.50
2023-02-15T15:41:50.885Z,101339.88
2023-02-15T15:44:45.704Z,101338.31
2023-02-15T15:47:17.986Z,101337.09
2023-02-15T15:49:44.899Z,101335.59
2023-02-15T15:52:21.020Z,101347.22
2023-02-15T15:54:53.623Z,101343.41
2023-02-15T15:57:33.309Z,101337.66
2023-02-15T16:00:02.371Z,101336.47
2023-02-15T16:02:29.196Z,101333.84
2023-02-15T16:04:55.747Z,101331.94
2023-02-15T16:07:27.057Z,101330.31
2023-02-15T16:09:57.848Z,101326.62
2023-02-15T16:12:26.792Z,101324.97
2023-02-15T16:14:54.543Z,101330.03
2023-02-15T16:17:26.963Z,101328.37
2023-02-15T16:20:07.004Z,101328.56
2023-02-15T16:22:34.807Z,101329.16
2023-02-15T16:25:25.536Z,101330.12
2023-02-15T16:27:52.634Z,101328.91
2023-02-15T16:30:36.675Z,101328.81
2023-02-15T16:33:14.612Z,101335.56
2023-02-15T16:35:56.627Z,101332.66
2023-02-15T16:38:39.639Z,101335.72
2023-02-15T16:41:06.271Z,101339.13
2023-02-15T16:43:34.548Z,101329.59
2023-02-15T16:46:07.382Z,101333.81
2023-02-15T16:48:39.876Z,101332.22
2023-02-15T16:51:11.159Z,101333.59
2023-02-15T16:53:38.368Z,101334.06
2023-02-15T16:56:06.414Z,101332.91
2023-02-15T16:58:42.418Z,101340.75
2023-02-15T17:01:11.667Z,101335.59
2023-02-15T17:03:38.511Z,101334.28
2023-02-15T17:06:30.319Z,101331.19
2023-02-15T17:09:19.549Z,101335.81
2023-02-15T17:11:46.174Z,101335.66
2023-02-15T17:14:15.482Z,101341.81
2023-02-15T17:16:45.588Z,101341.31
2023-02-15T17:19:49.528Z,101342.94
2023-02-15T17:22:23.248Z,101339.84
2023-02-15T17:24:58.146Z,101332.94
2023-02-15T17:27:32.048Z,101340.91
2023-02-15T17:30:04.842Z,101336.72
2023-02-15T17:32:34.266Z,101328.41
2023-02-15T17:35:05.031Z,101336.97
2023-02-15T17:37:40.270Z,101341.00
2023-02-15T17:40:26.396Z,101335.59
2023-02-15T17:42:53.530Z,101337.69
2023-02-15T17:45:21.791Z,101329.81
2023-02-15T17:47:52.859Z,101328.97
2023-02-15T17:50:25.484Z,101333.16
2023-02-15T17:52:54.042Z,101321.91
2023-02-15T17:55:43.094Z,101326.91
2023-02-15T17:58:19.574Z,101332.97
2023-02-15T18:01:14.802Z,101329.03
2023-02-15T18:04:08.238Z,101329.44
2023-02-15T18:06:59.620Z,101336.72
2023-02-15T18:09:45.446Z,101333.84
2023-02-15T18:12:24.967Z,101340.28
2023-02-15T18:14:54.345Z,101334.44
2023-02-15T18:17:28.741Z,101334.66
2023-02-15T18:19:55.744Z,101324.25
2023-02-15T18:22:23.873Z,101328.37
2023-02-15T18:24:51.764Z,101323.19
2023-02-15T18:27:21.325Z,101322.75
2023-02-15T18:29:49.048Z,101325.47
2023-02-15T18:32:22.426Z,101322.16
2023-02-15T18:34:50.916Z,101322.53
2023-02-15T18:37:21.393Z,101317.12
2023-02-15T18:39:51.314Z,101325.00
2023-02-15T18:42:29.462Z,101329.56
2023-02-15T18:44:58.901Z,101335.59
2023-02-15T18:47:27.004Z,101326.41
2023-02-15T18:49:53.674Z,101323.16
2023-02-15T18:52:26.492Z,101324.00
2023-02-15T18:55:01.786Z,101325.00
2023-02-15T18:57:30.617Z,101318.75
2023-02-15T18:59:57.237Z,101321.34
2023-02-15T19:02:24.073Z,101316.41
2023-02-15T19:04:50.671Z,101321.19
2023-02-15T19:07:24.784Z,101311.28
2023-02-15T19:09:54.770Z,101318.88
2023-02-15T19:12:21.383Z,101318.44
2023-02-15T19:14:48.176Z,101323.22
2023-02-15T19:17:18.027Z,101323.22
2023-02-15T19:19:46.000Z,101317.16
2023-02-15T19:22:19.046Z,101315.66
2023-02-15T19:24:47.037Z,101312.75
2023-02-15T19:27:27.536Z,101319.19
2023-02-15T19:29:54.977Z,101317.66
2023-02-15T19:32:21.635Z,101318.78
2023-02-15T19:34:48.342Z,101317.38
2023-02-15T19:37:42.286Z,101307.13
2023-02-15T19:40:20.412Z,101317.97
2023-02-15T19:42:47.271Z,101313.53
2023-02-15T19:45:19.700Z,101319.50
2023-02-15T19:47:48.258Z,101306.78
2023-02-15T19:50:17.238Z,101313.50
2023-02-15T19:52:44.732Z,101319.66
2023-02-15T19:55:29.672Z,101310.94
2023-02-15T19:57:58.349Z,101314.87
2023-02-15T20:00:27.412Z,101311.09
2023-02-15T20:02:54.453Z,101310.59
2023-02-15T20:05:21.585Z,101315.37
2023-02-15T20:07:50.514Z,101310.75
2023-02-15T20:10:18.247Z,101315.88
2023-02-15T20:12:45.204Z,101316.06
2023-02-15T20:15:29.375Z,101317.56
2023-02-15T20:17:57.589Z,101311.63
2023-02-15T20:20:43.379Z,101311.72
2023-02-15T20:23:31.983Z,101307.38
2023-02-15T20:26:01.161Z,101310.88
2023-02-15T20:28:31.355Z,101307.03
2023-02-15T20:30:58.763Z,101302.63
2023-02-15T20:33:25.413Z,101305.66
2023-02-15T20:35:52.341Z,101305.16
2023-02-15T20:38:25.629Z,101306.09
2023-02-15T20:41:12.046Z,101297.56
2023-02-15T20:43:38.929Z,101298.41
2023-02-15T20:46:06.074Z,101295.09
2023-02-15T20:48:33.119Z,101300.63
2023-02-15T20:51:00.115Z,101305.31
2023-02-15T20:53:28.835Z,101303.09
2023-02-15T20:55:55.893Z,101302.41
2023-02-15T20:58:28.344Z,101296.50
2023-02-15T21:00:57.981Z,101294.87
2023-02-15T21:03:30.582Z,101293.12
2023-02-15T21:05:58.456Z,101294.59
2023-02-15T21:08:25.315Z,101295.63
2023-02-15T21:10:53.736Z,101294.59
2023-02-15T21:13:25.039Z,101290.47
2023-02-15T21:15:53.525Z,101294.31
2023-02-15T21:18:33.208Z,101301.72
2023-02-15T21:21:03.039Z,101300.56
2023-02-15T21:23:34.820Z,101294.81
2023-02-15T21:26:01.972Z,101302.06
2023-02-15T21:28:29.537Z,101306.50
2023-02-15T21:31:00.139Z,101301.91
2023-02-15T21:33:27.217Z,101297.59
2023-02-15T21:35:56.798Z,101303.91
2023-02-15T21:38:38.592Z,101303.44
2023-02-15T21:41:25.199Z,101299.56
2023-02-15T21:44:10.411Z,101295.44
2023-02-15T21:46:56.389Z,101287.84
2023-02-15T21:52:30.311Z,101296.94
2023-02-15T21:55:06.098Z,101288.25
2023-02-15T21:57:32.656Z,101290.38
2023-02-15T21:59:59.177Z,101293.69
2023-02-15T22:02:29.517Z,101295.69
2023-02-15T22:04:56.799Z,101286.12
2023-02-15T22:07:23.582Z,101286.84
2023-02-15T22:09:50.165Z,101287.47
2023-02-15T22:12:18.761Z,101285.47
2023-02-15T22:14:52.577Z,101286.28
2023-02-15T22:17:22.603Z,101289.91
2023-02-15T22:19:49.926Z,101283.50
2023-02-15T22:22:17.089Z,101285.06
2023-02-15T22:24:44.641Z,101286.47
2023-02-15T22:27:26.335Z,101285.75
2023-02-15T22:29:54.356Z,101286.94
2023-02-15T22:32:23.842Z,101294.34
2023-02-15T22:34:51.191Z,101289.47
2023-02-15T22:37:18.156Z,101290.09
2023-02-15T22:40:06.861Z,101291.88
2023-02-15T22:43:00.549Z,101291.41
2023-02-15T22:45:30.196Z,101296.88
2023-02-15T22:47:59.400Z,101302.53
2023-02-15T22:50:32.026Z,101296.38
2023-02-15T22:53:03.516Z,101302.47
2023-02-15T22:55:36.601Z,101299.81
2023-02-15T23:00:40.244Z,101299.09
2023-02-15T23:03:16.777Z,101294.75
2023-02-15T23:05:44.148Z,101296.84
2023-02-15T23:08:13.519Z,101306.78
2023-02-15T23:10:41.567Z,101294.34
2023-02-15T23:14:09.993Z,101298.44
2023-02-15T23:17:20.311Z,101298.84
2023-02-15T23:19:46.946Z,101293.34
2023-02-15T23:22:18.647Z,101293.97
2023-02-15T23:24:49.922Z,101292.75
2023-02-15T23:27:36.724Z,101296.66
2023-02-15T23:30:06.111Z,101294.87
2023-02-15T23:35:16.227Z,101289.03
2023-02-15T23:37:43.265Z,101286.94
2023-02-15T23:40:36.319Z,101285.19
2023-02-15T23:43:03.381Z,101283.50
2023-02-15T23:45:34.472Z,101283.06
2023-02-15T23:48:56.907Z,101273.87
2023-02-15T23:51:46.419Z,101268.78
2023-02-15T23:54:22.208Z,101273.03
2023-02-15T23:56:52.476Z,101273.00
2023-02-15T23:59:22.574Z,101274.03
